Time;durP1;ratioP1;P1;durP2;ratioP2;P2;SDS_P1;SDS_P2;PMS_P1;PMS_P2;Temp;Humidity;BMP_temperature;BMP_pressure;BME280_temperature;BME280_humidity;BME280_pressure;Samples;Min_cycle;Max_cycle;Signal;HPM_P1;HPM_P2
2023/02/05 00:00:15;;;;;;;26.38;16.60;;;;;;;;;;5030574;28;20083;-61
2023/02/05 00:02:41;;;;;;;23.88;16.70;;;;;;;;;;5012885;28;20018;-61
2023/02/05 00:05:07;;;;;;;26.08;17.20;;;;;;;;;;5029673;28;20029;-62
2023/02/05 00:07:33;;;;;;;24.13;16.42;;;;;;;;;;5030616;28;20044;-61
2023/02/05 00:09:59;;;;;;;24.58;16.00;;;;;;;;;;5030476;28;20037;-61
2023/02/05 00:12:25;;;;;;;24.25;15.80;;;;;;;;;;5012266;28;20029;-58
2023/02/05 00:14:51;;;;;;;23.15;15.32;;;;;;;;;;5028811;28;20473;-59
2023/02/05 00:17:17;;;;;;;24.02;15.80;;;;;;;;;;5030344;28;20068;-61
2023/02/05 00:19:43;;;;;;;26.23;16.38;;;;;;;;;;5013285;28;20401;-61
2023/02/05 00:22:09;;;;;;;24.83;16.17;;;;;;;;;;5030490;28;20040;-60
2023/02/05 00:24:35;;;;;;;26.75;17.65;;;;;;;;;;5029653;28;20036;-58
2023/02/05 00:27:01;;;;;;;24.77;17.13;;;;;;;;;;5012759;28;20036;-58
2023/02/05 00:29:27;;;;;;;28.40;18.25;;;;;;;;;;5030573;28;20036;-59
2023/02/05 00:31:53;;;;;;;25.65;16.40;;;;;;;;;;5012451;28;20030;-58
2023/02/05 00:34:19;;;;;;;27.42;18.30;;;;;;;;;;5011802;28;20033;-61
2023/02/05 00:36:45;;;;;;;26.10;17.00;;;;;;;;;;5029703;28;20045;-60
2023/02/05 00:39:13;;;;;;;26.23;19.10;;;;;;;;;;5013880;28;20033;-58
2023/02/05 00:41:39;;;;;;;27.52;18.92;;;;;;;;;;5031557;28;20017;-61
2023/02/05 00:44:05;;;;;;;30.10;19.00;;;;;;;;;;5027212;28;20037;-56
2023/02/05 00:46:31;;;;;;;28.77;17.67;;;;;;;;;;5029633;28;20505;-61
2023/02/05 00:48:57;;;;;;;28.20;18.30;;;;;;;;;;5056695;22;20022;-64
2023/02/05 00:51:23;;;;;;;29.80;18.65;;;;;;;;;;5047894;28;20163;-66
2023/02/05 00:53:49;;;;;;;28.00;18.50;;;;;;;;;;5015798;28;20494;-66
2023/02/05 00:56:15;;;;;;;25.15;17.48;;;;;;;;;;5032991;28;20048;-65
2023/02/05 00:58:46;;;;;;;28.92;19.83;;;;;;;;;;5015510;28;20152;-66
2023/02/05 01:01:13;;;;;;;28.75;18.83;;;;;;;;;;5015117;28;20038;-66
2023/02/05 01:03:39;;;;;;;27.02;18.95;;;;;;;;;;5032549;28;20053;-66
2023/02/05 01:06:05;;;;;;;27.60;19.30;;;;;;;;;;5015276;28;20031;-66
2023/02/05 01:08:31;;;;;;;26.70;18.88;;;;;;;;;;5033460;28;20030;-65
2023/02/05 01:10:57;;;;;;;25.10;17.98;;;;;;;;;;5033289;28;20691;-66
2023/02/05 01:13:23;;;;;;;27.48;18.30;;;;;;;;;;5032622;28;20071;-66
2023/02/05 01:15:49;;;;;;;30.70;19.58;;;;;;;;;;5033249;28;20048;-66
2023/02/05 01:18:15;;;;;;;26.33;17.77;;;;;;;;;;5033224;28;20490;-66
2023/02/05 01:20:42;;;;;;;33.13;18.70;;;;;;;;;;5033258;28;20037;-66
2023/02/05 01:23:08;;;;;;;25.60;16.83;;;;;;;;;;5032521;28;20386;-65
2023/02/05 01:25:34;;;;;;;26.45;17.30;;;;;;;;;;5033067;28;20100;-66
2023/02/05 01:28:00;;;;;;;27.65;17.55;;;;;;;;;;5015261;28;20585;-65
2023/02/05 01:30:26;;;;;;;26.08;17.10;;;;;;;;;;5033133;28;20025;-67
2023/02/05 01:32:52;;;;;;;25.50;17.15;;;;;;;;;;5032918;28;20477;-65
2023/02/05 01:35:18;;;;;;;30.42;17.55;;;;;;;;;;5014723;28;20036;-67
2023/02/05 01:37:44;;;;;;;24.80;17.27;;;;;;;;;;5016919;28;20054;-66
2023/02/05 01:40:14;;;;;;;23.33;15.80;;;;;;;;;;4995593;28;20064;-65
2023/02/05 01:42:40;;;;;;;25.75;15.68;;;;;;;;;;4995628;28;20109;-65
2023/02/05 01:45:21;;;;;;;26.15;17.33;;;;;;;;;;5012306;28;20022;-66
2023/02/05 01:47:58;;;;;;;26.85;16.10;;;;;;;;;;5012912;28;20045;-66
2023/02/05 01:50:28;;;;;;;27.58;18.20;;;;;;;;;;4995147;28;20069;-66
2023/02/05 01:52:55;;;;;;;25.08;16.58;;;;;;;;;;4995145;28;20026;-65
2023/02/05 01:55:21;;;;;;;23.73;15.90;;;;;;;;;;5012392;28;20038;-67
2023/02/05 01:57:48;;;;;;;25.10;16.33;;;;;;;;;;4995271;28;20046;-67
2023/02/05 02:00:14;;;;;;;28.20;17.02;;;;;;;;;;5012687;28;20034;-66
2023/02/05 02:02:41;;;;;;;22.95;15.75;;;;;;;;;;5012519;28;20102;-66
2023/02/05 02:05:12;;;;;;;24.48;15.65;;;;;;;;;;4994609;28;20029;-65
2023/02/05 02:07:38;;;;;;;25.58;16.50;;;;;;;;;;4995048;28;20026;-65
2023/02/05 02:10:04;;;;;;;24.10;15.75;;;;;;;;;;5012598;28;20033;-66
2023/02/05 02:12:33;;;;;;;24.65;15.40;;;;;;;;;;4994864;28;20068;-66
2023/02/05 02:15:02;;;;;;;21.42;14.73;;;;;;;;;;5011918;28;20125;-66
2023/02/05 02:17:29;;;;;;;25.75;15.10;;;;;;;;;;4994797;28;20033;-66
2023/02/05 02:20:00;;;;;;;22.40;14.95;;;;;;;;;;5012275;28;20025;-65
2023/02/05 02:22:35;;;;;;;23.15;15.43;;;;;;;;;;5012557;28;20022;-64
2023/02/05 02:25:19;;;;;;;22.80;15.75;;;;;;;;;;5011889;28;20025;-66
2023/02/05 02:27:51;;;;;;;26.67;15.55;;;;;;;;;;5012534;28;20484;-66
2023/02/05 02:30:22;;;;;;;23.05;14.70;;;;;;;;;;4994694;28;20116;-66
2023/02/05 02:33:07;;;;;;;23.70;15.65;;;;;;;;;;4994791;28;20550;-65
2023/02/05 02:35:42;;;;;;;24.65;16.27;;;;;;;;;;5012298;28;20033;-66
2023/02/05 02:38:11;;;;;;;25.60;15.98;;;;;;;;;;4994035;28;20057;-66
2023/02/05 02:40:42;;;;;;;24.92;16.65;;;;;;;;;;5012351;28;20029;-66
2023/02/05 02:43:16;;;;;;;24.08;15.38;;;;;;;;;;4994246;28;20026;-65
2023/02/05 02:45:48;;;;;;;23.52;15.63;;;;;;;;;;4994653;28;20030;-66
2023/02/05 02:48:15;;;;;;;21.98;15.30;;;;;;;;;;5012669;28;20669;-63
2023/02/05 02:50:43;;;;;;;24.38;15.50;;;;;;;;;;4996668;28;20507;-66
2023/02/05 02:53:23;;;;;;;22.90;15.38;;;;;;;;;;5013403;28;20122;-65
2023/02/05 02:55:50;;;;;;;28.67;15.93;;;;;;;;;;5000133;28;20097;-66
2023/02/05 02:58:18;;;;;;;22.83;15.65;;;;;;;;;;4995837;28;20052;-66
2023/02/05 03:00:45;;;;;;;22.80;15.45;;;;;;;;;;5012401;28;20091;-66
2023/02/05 03:03:12;;;;;;;24.73;16.25;;;;;;;;;;4993657;28;20037;-65
2023/02/05 03:05:40;;;;;;;26.42;17.17;;;;;;;;;;5011720;28;20062;-66
2023/02/05 03:08:16;;;;;;;27.13;15.60;;;;;;;;;;5012047;28;20018;-65
2023/02/05 03:11:09;;;;;;;21.65;15.40;;;;;;;;;;5012198;28;20394;-65
2023/02/05 03:13:35;;;;;;;27.42;17.85;;;;;;;;;;4989750;28;20065;-65
2023/02/05 03:16:01;;;;;;;22.10;15.25;;;;;;;;;;4994472;28;20064;-65
2023/02/05 03:18:27;;;;;;;26.08;18.70;;;;;;;;;;5012272;28;20048;-65
2023/02/05 03:20:55;;;;;;;28.33;17.95;;;;;;;;;;4994204;28;20383;-66
2023/02/05 03:23:21;;;;;;;28.65;17.65;;;;;;;;;;5011465;28;20049;-65
2023/02/05 03:25:47;;;;;;;23.52;17.73;;;;;;;;;;5011844;28;20033;-65
2023/02/05 03:28:13;;;;;;;25.23;17.92;;;;;;;;;;4994103;28;20103;-65
2023/02/05 03:30:45;;;;;;;27.48;18.05;;;;;;;;;;5011773;28;20026;-65
2023/02/05 03:33:30;;;;;;;25.88;18.65;;;;;;;;;;5011198;28;20164;-66
2023/02/05 03:35:56;;;;;;;23.83;17.90;;;;;;;;;;5011778;28;20037;-66
2023/02/05 03:38:22;;;;;;;25.75;18.85;;;;;;;;;;5011537;28;20025;-66
2023/02/05 03:40:58;;;;;;;24.88;18.45;;;;;;;;;;5011450;28;20172;-66
2023/02/05 03:43:29;;;;;;;26.70;17.50;;;;;;;;;;5010953;28;20030;-66
2023/02/05 03:45:58;;;;;;;26.20;18.40;;;;;;;;;;4994224;28;20030;-65
2023/02/05 03:48:33;;;;;;;24.83;17.90;;;;;;;;;;4993659;28;20439;-65
2023/02/05 03:51:05;;;;;;;25.00;18.42;;;;;;;;;;5014206;28;20120;-66
2023/02/05 03:53:40;;;;;;;28.20;19.40;;;;;;;;;;4996924;28;20038;-66
2023/02/05 03:56:13;;;;;;;25.23;18.30;;;;;;;;;;4997526;28;20373;-65
2023/02/05 03:58:41;;;;;;;25.85;17.95;;;;;;;;;;4997553;28;20026;-66
2023/02/05 04:01:08;;;;;;;27.70;18.63;;;;;;;;;;5014975;28;20026;-66
2023/02/05 04:03:34;;;;;;;25.15;18.00;;;;;;;;;;4996909;28;20446;-66
2023/02/05 04:06:00;;;;;;;25.40;19.13;;;;;;;;;;5014938;28;20113;-66
2023/02/05 04:08:26;;;;;;;25.88;18.75;;;;;;;;;;5014852;28;20033;-65
2023/02/05 04:10:52;;;;;;;25.13;18.63;;;;;;;;;;5014994;28;20490;-66
2023/02/05 04:13:18;;;;;;;30.52;19.20;;;;;;;;;;4996678;28;20437;-65
2023/02/05 04:15:44;;;;;;;26.42;20.00;;;;;;;;;;4997315;28;20022;-65
2023/02/05 04:18:10;;;;;;;26.88;18.98;;;;;;;;;;5015025;28;20037;-65
2023/02/05 04:20:36;;;;;;;24.35;18.40;;;;;;;;;;5014949;28;20032;-66
2023/02/05 04:23:02;;;;;;;23.73;18.20;;;;;;;;;;5013691;28;20030;-63
2023/02/05 04:25:28;;;;;;;25.77;18.60;;;;;;;;;;4997004;28;20102;-66
2023/02/05 04:27:54;;;;;;;27.00;19.60;;;;;;;;;;5014333;28;20393;-65
2023/02/05 04:30:20;;;;;;;25.23;17.88;;;;;;;;;;5014246;28;20482;-65
2023/02/05 04:32:46;;;;;;;27.83;18.75;;;;;;;;;;4996580;28;20034;-65
2023/02/05 04:35:12;;;;;;;24.35;18.13;;;;;;;;;;5013685;28;20038;-66
2023/02/05 04:37:38;;;;;;;25.65;19.17;;;;;;;;;;5014354;28;20137;-66
2023/02/05 04:40:04;;;;;;;26.30;18.88;;;;;;;;;;4996328;28;20052;-65
2023/02/05 04:42:30;;;;;;;25.38;19.65;;;;;;;;;;4996551;28;20026;-66
2023/02/05 04:44:56;;;;;;;26.30;20.08;;;;;;;;;;4995867;28;20018;-66
2023/02/05 04:47:22;;;;;;;30.63;20.45;;;;;;;;;;5014243;28;20061;-65
2023/02/05 04:49:48;;;;;;;25.90;20.05;;;;;;;;;;5014083;28;20042;-65
2023/02/05 04:52:14;;;;;;;28.80;21.90;;;;;;;;;;5014621;28;20100;-66
2023/02/05 04:54:40;;;;;;;27.30;21.02;;;;;;;;;;5013838;28;20026;-66
2023/02/05 04:57:06;;;;;;;30.85;22.00;;;;;;;;;;4996813;28;20053;-66
2023/02/05 04:59:32;;;;;;;31.83;23.15;;;;;;;;;;5013799;28;20509;-65
2023/02/05 05:01:58;;;;;;;29.15;23.05;;;;;;;;;;4995717;28;20025;-66
2023/02/05 05:04:25;;;;;;;32.90;27.20;;;;;;;;;;5013214;28;20053;-64
2023/02/05 05:06:51;;;;;;;31.98;28.02;;;;;;;;;;5013841;28;20026;-65
2023/02/05 05:09:19;;;;;;;34.00;29.27;;;;;;;;;;5013573;28;20028;-62
2023/02/05 05:11:45;;;;;;;33.55;28.48;;;;;;;;;;4996558;28;20041;-64
2023/02/05 05:14:11;;;;;;;34.42;30.52;;;;;;;;;;4995325;28;20034;-64
2023/02/05 05:16:37;;;;;;;34.28;30.70;;;;;;;;;;5013572;28;20084;-64
2023/02/05 05:19:04;;;;;;;38.20;32.28;;;;;;;;;;5013414;28;20026;-65
2023/02/05 05:21:30;;;;;;;34.47;30.88;;;;;;;;;;5013451;28;20061;-64
2023/02/05 05:23:56;;;;;;;38.55;31.73;;;;;;;;;;4995240;28;20067;-66
2023/02/05 05:26:22;;;;;;;34.88;31.15;;;;;;;;;;5013510;28;20022;-65
2023/02/05 05:28:51;;;;;;;37.88;30.75;;;;;;;;;;4995928;28;20517;-62
2023/02/05 05:31:18;;;;;;;38.70;31.90;;;;;;;;;;4996899;28;20469;-64
2023/02/05 05:33:44;;;;;;;34.63;30.45;;;;;;;;;;5012626;28;20026;-64
2023/02/05 05:36:10;;;;;;;33.88;30.48;;;;;;;;;;4995907;28;20058;-64
2023/02/05 05:38:37;;;;;;;36.95;30.80;;;;;;;;;;5013280;28;20084;-64
2023/02/05 05:43:51;;;;;;;38.45;31.40;;;;;;;;;;5012669;28;20084;-63
2023/02/05 05:46:22;;;;;;;36.17;31.60;;;;;;;;;;4995609;28;20029;-62
2023/02/05 05:48:56;;;;;;;35.10;31.13;;;;;;;;;;4995551;28;20103;-64
2023/02/05 05:51:22;;;;;;;35.65;31.92;;;;;;;;;;5013092;28;20030;-64
2023/02/05 05:53:48;;;;;;;39.58;32.53;;;;;;;;;;4994545;28;20141;-64
2023/02/05 05:56:15;;;;;;;37.05;33.00;;;;;;;;;;5012726;28;20030;-63
2023/02/05 05:58:41;;;;;;;36.35;32.33;;;;;;;;;;4995272;28;20144;-64
2023/02/05 06:01:07;;;;;;;37.58;33.58;;;;;;;;;;4995049;28;20026;-64
2023/02/05 06:03:33;;;;;;;38.28;34.08;;;;;;;;;;5011954;28;20544;-64
2023/02/05 06:06:00;;;;;;;36.78;31.90;;;;;;;;;;4995103;28;20077;-64
2023/02/05 06:08:26;;;;;;;39.17;33.00;;;;;;;;;;5014909;28;20019;-63
2023/02/05 06:10:52;;;;;;;49.75;35.53;;;;;;;;;;5032632;28;20021;-64
2023/02/05 06:13:18;;;;;;;43.42;33.97;;;;;;;;;;5013223;28;20028;-63
2023/02/05 06:15:44;;;;;;;41.40;34.38;;;;;;;;;;5014840;28;20512;-65
2023/02/05 06:18:10;;;;;;;41.35;34.25;;;;;;;;;;5032341;28;20038;-64
2023/02/05 06:20:36;;;;;;;41.55;34.88;;;;;;;;;;5032427;28;20032;-64
2023/02/05 06:23:02;;;;;;;44.50;38.03;;;;;;;;;;5013893;28;20021;-62
2023/02/05 06:25:28;;;;;;;40.65;36.20;;;;;;;;;;5027962;28;20033;-64
2023/02/05 06:27:54;;;;;;;42.83;37.03;;;;;;;;;;5012432;28;20399;-63
2023/02/05 06:30:20;;;;;;;46.47;38.60;;;;;;;;;;4994398;28;20026;-64
2023/02/05 06:32:46;;;;;;;42.67;37.35;;;;;;;;;;4994613;28;20022;-64
2023/02/05 06:35:12;;;;;;;44.08;39.45;;;;;;;;;;4994092;28;20513;-65
2023/02/05 06:37:38;;;;;;;48.17;38.95;;;;;;;;;;5012394;28;20029;-64
2023/02/05 06:40:04;;;;;;;49.05;38.00;;;;;;;;;;5012198;28;20033;-64
2023/02/05 06:42:30;;;;;;;45.60;40.22;;;;;;;;;;4998400;28;20076;-64
2023/02/05 06:44:56;;;;;;;48.90;40.22;;;;;;;;;;5013798;28;20018;-63
2023/02/05 06:47:22;;;;;;;52.55;41.60;;;;;;;;;;5032050;28;20466;-64
2023/02/05 06:49:48;;;;;;;59.75;42.42;;;;;;;;;;5042343;22;20124;-67
2023/02/05 06:52:15;;;;;;;57.50;44.13;;;;;;;;;;5049819;28;20033;-66
2023/02/05 06:54:42;;;;;;;56.03;44.92;;;;;;;;;;5031270;28;20508;-68
2023/02/05 06:57:08;;;;;;;52.45;43.58;;;;;;;;;;5050118;28;20029;-67
2023/02/05 06:59:34;;;;;;;54.22;42.72;;;;;;;;;;5049911;28;20086;-67
2023/02/05 07:02:00;;;;;;;55.10;46.40;;;;;;;;;;5049968;28;20024;-66
2023/02/05 07:04:26;;;;;;;55.00;45.20;;;;;;;;;;5049076;28;20047;-66
2023/02/05 07:06:54;;;;;;;60.55;46.53;;;;;;;;;;5050041;28;20053;-67
2023/02/05 07:09:20;;;;;;;53.40;44.63;;;;;;;;;;5031968;28;20029;-68
2023/02/05 07:11:46;;;;;;;67.88;49.05;;;;;;;;;;5049934;28;20075;-67
2023/02/05 07:14:12;;;;;;;57.33;45.22;;;;;;;;;;5049151;28;20025;-67
2023/02/05 07:16:38;;;;;;;57.35;51.10;;;;;;;;;;5049777;28;20025;-69
2023/02/05 07:19:04;;;;;;;67.28;51.80;;;;;;;;;;5049988;28;20021;-67
2023/02/05 07:21:30;;;;;;;63.55;51.25;;;;;;;;;;5031809;28;20025;-67
2023/02/05 07:23:56;;;;;;;60.00;51.40;;;;;;;;;;5031494;28;20041;-67
2023/02/05 07:26:22;;;;;;;67.20;54.10;;;;;;;;;;5035776;28;20485;-67
2023/02/05 07:28:48;;;;;;;63.08;53.47;;;;;;;;;;5053903;28;20439;-67
2023/02/05 07:31:16;;;;;;;61.95;53.53;;;;;;;;;;5053868;28;20178;-67
2023/02/05 07:33:43;;;;;;;62.17;51.87;;;;;;;;;;5035202;28;20021;-67
2023/02/05 07:36:10;;;;;;;60.92;52.35;;;;;;;;;;5035782;28;20309;-68
2023/02/05 07:38:36;;;;;;;61.00;52.60;;;;;;;;;;5053509;28;20021;-67
2023/02/05 07:41:03;;;;;;;63.00;50.15;;;;;;;;;;5035527;28;20033;-64
2023/02/05 07:43:31;;;;;;;67.30;54.85;;;;;;;;;;5034970;28;20029;-66
2023/02/05 07:45:57;;;;;;;63.13;51.35;;;;;;;;;;5053698;28;20370;-66
2023/02/05 07:48:23;;;;;;;62.55;54.00;;;;;;;;;;5053289;28;20052;-66
2023/02/05 07:50:49;;;;;;;64.72;52.03;;;;;;;;;;5053016;28;20454;-66
2023/02/05 07:53:15;;;;;;;63.72;52.65;;;;;;;;;;5052476;28;20028;-67
2023/02/05 07:55:41;;;;;;;61.85;50.88;;;;;;;;;;5035197;28;20091;-67
2023/02/05 07:58:07;;;;;;;68.65;52.38;;;;;;;;;;5053132;28;20033;-67
2023/02/05 08:00:33;;;;;;;65.25;53.13;;;;;;;;;;5034784;28;20025;-66
2023/02/05 08:03:00;;;;;;;71.78;51.63;;;;;;;;;;5034941;28;20029;-67
2023/02/05 08:05:26;;;;;;;62.47;51.00;;;;;;;;;;5052086;28;20017;-66
2023/02/05 08:07:51;;;;;;;67.05;49.60;;;;;;;;;;5035115;28;20116;-67
2023/02/05 08:10:18;;;;;;;66.72;52.45;;;;;;;;;;5034878;28;20531;-66
2023/02/05 08:12:44;;;;;;;61.35;50.08;;;;;;;;;;5052702;28;20031;-65
2023/02/05 08:15:10;;;;;;;71.40;51.42;;;;;;;;;;5034267;28;20025;-67
2023/02/05 08:17:36;;;;;;;64.60;51.72;;;;;;;;;;5052842;28;20033;-67
2023/02/05 08:20:06;;;;;;;62.17;47.75;;;;;;;;;;5035015;28;20036;-67
2023/02/05 08:22:33;;;;;;;58.25;52.05;;;;;;;;;;5052715;28;20025;-71
2023/02/05 08:24:59;;;;;;;67.70;52.58;;;;;;;;;;5034048;28;20055;-66
2023/02/05 08:27:25;;;;;;;53.38;47.70;;;;;;;;;;5051704;28;20025;-67
2023/02/05 08:29:51;;;;;;;53.83;47.95;;;;;;;;;;5052055;28;20037;-67
2023/02/05 08:32:17;;;;;;;57.50;50.45;;;;;;;;;;5052057;28;20087;-68
2023/02/05 08:34:43;;;;;;;52.70;47.08;;;;;;;;;;5059375;28;20386;-67
2023/02/05 08:37:09;;;;;;;51.25;46.05;;;;;;;;;;5058693;28;20033;-67
2023/02/05 08:39:36;;;;;;;49.55;44.05;;;;;;;;;;5057044;28;20114;-65
2023/02/05 08:42:02;;;;;;;49.40;44.70;;;;;;;;;;5035580;28;20440;-67
2023/02/05 08:44:28;;;;;;;49.10;44.35;;;;;;;;;;5051921;28;20017;-68
2023/02/05 08:46:54;;;;;;;43.83;39.67;;;;;;;;;;5034510;28;20493;-68
2023/02/05 08:49:20;;;;;;;44.25;40.13;;;;;;;;;;5052274;28;20400;-68
2023/02/05 08:51:47;;;;;;;39.15;35.53;;;;;;;;;;5052150;28;20596;-67
2023/02/05 08:54:14;;;;;;;41.00;37.10;;;;;;;;;;5051387;28;20096;-68
2023/02/05 08:56:40;;;;;;;38.65;35.17;;;;;;;;;;5052439;28;20029;-65
2023/02/05 08:59:07;;;;;;;38.97;35.40;;;;;;;;;;5052362;28;20051;-66
2023/02/05 09:01:36;;;;;;;39.00;35.55;;;;;;;;;;5052235;28;20033;-66
2023/02/05 09:04:02;;;;;;;38.65;35.33;;;;;;;;;;5051502;28;20029;-61
2023/02/05 09:06:28;;;;;;;38.60;35.30;;;;;;;;;;5034024;28;20032;-61
2023/02/05 09:08:54;;;;;;;41.20;37.55;;;;;;;;;;5051844;28;20431;-62
2023/02/05 09:11:20;;;;;;;37.85;34.63;;;;;;;;;;5033595;28;20051;-63
2023/02/05 09:13:46;;;;;;;36.53;33.33;;;;;;;;;;5051050;28;20107;-62
2023/02/05 09:16:12;;;;;;;37.70;34.20;;;;;;;;;;5051459;28;20064;-63
2023/02/05 09:18:38;;;;;;;37.00;34.00;;;;;;;;;;5051346;28;20455;-62
2023/02/05 09:21:08;;;;;;;34.13;31.17;;;;;;;;;;5051021;28;20120;-62
2023/02/05 09:23:34;;;;;;;32.20;29.50;;;;;;;;;;5032732;28;20067;-62
2023/02/05 09:26:00;;;;;;;30.55;27.85;;;;;;;;;;5049056;28;20025;-62
2023/02/05 09:28:26;;;;;;;30.48;27.77;;;;;;;;;;5045037;28;20523;-63
2023/02/05 09:30:52;;;;;;;30.85;27.95;;;;;;;;;;5033100;28;20478;-63
2023/02/05 09:33:18;;;;;;;30.25;27.67;;;;;;;;;;5050579;28;20036;-63
2023/02/05 09:35:44;;;;;;;31.58;28.48;;;;;;;;;;5051106;28;20032;-62
2023/02/05 09:38:14;;;;;;;27.73;25.40;;;;;;;;;;5048271;28;20025;-61
2023/02/05 09:41:06;;;;;;;28.35;26.05;;;;;;;;;;5051169;28;20488;-63
2023/02/05 09:43:38;;;;;;;29.65;26.95;;;;;;;;;;5019505;28;20037;-62
2023/02/05 09:46:16;;;;;;;29.92;27.42;;;;;;;;;;5025656;28;20017;-62
2023/02/05 09:48:48;;;;;;;29.55;26.92;;;;;;;;;;5051288;28;20485;-64
2023/02/05 09:51:15;;;;;;;29.08;26.58;;;;;;;;;;5054480;28;20500;-64
2023/02/05 09:53:43;;;;;;;28.08;25.65;;;;;;;;;;5054570;28;20029;-65
2023/02/05 09:56:09;;;;;;;27.70;25.30;;;;;;;;;;5037432;28;20113;-64
2023/02/05 09:58:39;;;;;;;27.58;25.25;;;;;;;;;;5035411;28;20029;-64
2023/02/05 10:01:14;;;;;;;26.88;24.58;;;;;;;;;;5031509;28;20200;-63
2023/02/05 10:03:45;;;;;;;28.05;25.48;;;;;;;;;;5047318;28;20017;-62
2023/02/05 10:06:14;;;;;;;29.30;26.65;;;;;;;;;;5032501;28;20461;-64
2023/02/05 10:08:49;;;;;;;27.40;25.00;;;;;;;;;;5050502;28;20481;-63
2023/02/05 10:11:20;;;;;;;28.88;26.48;;;;;;;;;;5050357;28;20436;-64
2023/02/05 10:13:50;;;;;;;28.50;26.20;;;;;;;;;;5049643;28;20029;-63
2023/02/05 10:16:18;;;;;;;28.10;25.80;;;;;;;;;;5050285;28;20025;-63
2023/02/05 10:19:23;;;;;;;29.33;26.92;;;;;;;;;;5050366;28;20025;-62
2023/02/05 10:21:52;;;;;;;29.70;27.10;;;;;;;;;;4969299;28;20038;-63
2023/02/05 10:24:36;;;;;;;30.15;27.40;;;;;;;;;;4952538;28;20027;-63
2023/02/05 10:27:08;;;;;;;30.10;27.60;;;;;;;;;;5018852;28;20045;-65
2023/02/05 10:29:54;;;;;;;30.65;27.98;;;;;;;;;;5049678;28;20028;-64
2023/02/05 10:32:24;;;;;;;31.48;28.63;;;;;;;;;;5008956;28;20041;-64
2023/02/05 10:34:58;;;;;;;31.52;28.70;;;;;;;;;;5049361;28;20028;-64
2023/02/05 10:37:34;;;;;;;32.90;30.10;;;;;;;;;;5031968;28;20538;-64
2023/02/05 10:40:02;;;;;;;31.67;29.02;;;;;;;;;;5049658;28;20036;-62
2023/02/05 10:42:33;;;;;;;32.57;29.87;;;;;;;;;;5049869;28;20490;-64
2023/02/05 10:45:03;;;;;;;32.75;30.15;;;;;;;;;;5031340;28;20040;-64
2023/02/05 10:47:35;;;;;;;32.00;29.50;;;;;;;;;;5050124;28;20029;-64
2023/02/05 10:50:03;;;;;;;33.28;30.45;;;;;;;;;;5049707;28;20037;-63
2023/02/05 10:52:31;;;;;;;35.80;32.83;;;;;;;;;;5049529;28;20101;-60
2023/02/05 10:54:57;;;;;;;37.45;33.95;;;;;;;;;;5045072;28;20077;-65
2023/02/05 10:57:23;;;;;;;34.45;31.73;;;;;;;;;;5048328;28;20024;-63
2023/02/05 10:59:53;;;;;;;33.72;30.92;;;;;;;;;;5050553;28;20476;-63
2023/02/05 11:02:21;;;;;;;35.10;32.00;;;;;;;;;;5053785;28;20025;-65
2023/02/05 11:04:50;;;;;;;34.33;31.38;;;;;;;;;;5052410;28;20027;-64
2023/02/05 11:07:38;;;;;;;33.70;30.50;;;;;;;;;;5053304;28;20025;-65
2023/02/05 11:10:14;;;;;;;32.80;30.10;;;;;;;;;;5053112;28;20028;-64
2023/02/05 11:12:42;;;;;;;32.20;29.35;;;;;;;;;;5053648;28;20350;-64
2023/02/05 11:15:17;;;;;;;32.97;29.85;;;;;;;;;;5052952;28;20036;-65
2023/02/05 11:17:43;;;;;;;31.73;29.13;;;;;;;;;;5053492;28;20060;-64
2023/02/05 11:20:15;;;;;;;32.60;29.70;;;;;;;;;;5049901;28;20102;-64
2023/02/05 11:22:42;;;;;;;32.10;29.13;;;;;;;;;;5047496;28;20029;-65
2023/02/05 11:25:19;;;;;;;32.55;29.17;;;;;;;;;;5052445;28;20028;-62
2023/02/05 11:27:57;;;;;;;31.35;28.33;;;;;;;;;;5053423;28;20025;-61
2023/02/05 11:30:26;;;;;;;30.90;28.08;;;;;;;;;;5034503;28;20568;-65
2023/02/05 11:32:53;;;;;;;29.65;26.52;;;;;;;;;;5051965;28;20505;-66
2023/02/05 11:35:24;;;;;;;29.23;26.67;;;;;;;;;;5054396;28;20108;-66
2023/02/05 11:37:55;;;;;;;27.50;25.10;;;;;;;;;;5058213;28;20550;-64
2023/02/05 11:40:27;;;;;;;29.02;26.30;;;;;;;;;;5035514;28;20033;-64
2023/02/05 11:43:17;;;;;;;28.83;26.23;;;;;;;;;;5035456;28;20086;-66
2023/02/05 11:45:47;;;;;;;27.83;25.23;;;;;;;;;;5053459;28;20025;-65
2023/02/05 11:48:23;;;;;;;28.85;26.27;;;;;;;;;;5034939;28;20427;-66
2023/02/05 11:50:49;;;;;;;27.95;25.33;;;;;;;;;;5052636;28;20044;-66
2023/02/05 11:53:18;;;;;;;28.25;25.73;;;;;;;;;;5051904;28;20025;-66
2023/02/05 11:55:44;;;;;;;28.73;26.02;;;;;;;;;;5052948;28;20017;-66
2023/02/05 11:58:22;;;;;;;28.38;25.98;;;;;;;;;;5034671;28;20052;-66
2023/02/05 12:00:52;;;;;;;28.30;26.00;;;;;;;;;;5052323;28;20125;-66
2023/02/05 12:03:18;;;;;;;28.02;25.63;;;;;;;;;;5034530;28;20025;-67
2023/02/05 12:05:59;;;;;;;27.65;25.30;;;;;;;;;;5052492;28;20048;-66
2023/02/05 12:08:41;;;;;;;29.27;26.35;;;;;;;;;;5052914;28;20021;-64
2023/02/05 12:11:10;;;;;;;28.02;25.60;;;;;;;;;;5034432;28;20040;-64
2023/02/05 12:13:55;;;;;;;27.95;25.55;;;;;;;;;;5033935;28;20056;-65
2023/02/05 12:16:24;;;;;;;29.13;26.55;;;;;;;;;;5052518;28;20365;-65
2023/02/05 12:19:00;;;;;;;29.23;26.52;;;;;;;;;;5034170;28;20029;-64
2023/02/05 12:21:45;;;;;;;29.48;26.67;;;;;;;;;;5034414;28;20073;-65
2023/02/05 12:24:23;;;;;;;29.00;26.40;;;;;;;;;;5050928;28;20500;-67
2023/02/05 12:26:50;;;;;;;29.48;26.92;;;;;;;;;;5052088;28;20027;-67
2023/02/05 12:29:49;;;;;;;28.58;26.00;;;;;;;;;;5046732;28;20067;-67
2023/02/05 12:32:35;;;;;;;28.30;25.90;;;;;;;;;;5008397;28;20025;-67
2023/02/05 12:35:16;;;;;;;27.70;25.27;;;;;;;;;;5043807;28;20393;-66
2023/02/05 12:37:45;;;;;;;29.17;26.48;;;;;;;;;;5052068;28;20032;-67
2023/02/05 12:40:30;;;;;;;30.05;27.23;;;;;;;;;;5052102;28;20099;-66
2023/02/05 12:42:59;;;;;;;30.35;27.65;;;;;;;;;;5051898;28;20025;-62
2023/02/05 12:45:34;;;;;;;31.52;28.73;;;;;;;;;;5033180;28;20040;-67
2023/02/05 12:48:18;;;;;;;31.00;28.20;;;;;;;;;;5047152;28;20024;-64
2023/02/05 12:50:51;;;;;;;31.40;28.73;;;;;;;;;;5089362;22;20050;-61
2023/02/05 12:53:35;;;;;;;32.22;29.42;;;;;;;;;;5092671;28;20024;-61
2023/02/05 12:56:20;;;;;;;34.45;31.42;;;;;;;;;;5091104;28;20024;-62
2023/02/05 12:58:49;;;;;;;32.97;29.90;;;;;;;;;;5080165;28;20028;-61
2023/02/05 13:01:21;;;;;;;32.50;29.52;;;;;;;;;;5089078;28;20030;-62
2023/02/05 13:03:53;;;;;;;32.22;29.15;;;;;;;;;;5073974;28;20341;-62
2023/02/05 13:06:38;;;;;;;31.70;28.98;;;;;;;;;;5092917;28;20024;-62
2023/02/05 13:09:04;;;;;;;31.58;28.70;;;;;;;;;;5102556;28;20101;-64
2023/02/05 13:11:33;;;;;;;32.83;29.70;;;;;;;;;;5080728;28;20044;-62
2023/02/05 13:14:02;;;;;;;30.67;27.88;;;;;;;;;;5072226;28;20029;-60
2023/02/05 13:16:36;;;;;;;32.58;29.42;;;;;;;;;;5072601;28;20027;-61
2023/02/05 13:19:13;;;;;;;31.45;28.58;;;;;;;;;;5077045;28;20056;-61
2023/02/05 13:30:33;;;;;;;29.05;26.33;;;;;;;;;;5091990;28;20577;-61
2023/02/05 13:33:01;;;;;;;30.75;26.55;;;;;;;;;;5113044;28;20038;-60
2023/02/05 13:35:31;;;;;;;28.23;25.52;;;;;;;;;;5083211;28;20023;-62
2023/02/05 13:38:09;;;;;;;29.42;26.38;;;;;;;;;;5092605;28;20046;-61
2023/02/05 13:40:54;;;;;;;26.88;24.33;;;;;;;;;;5086240;28;20058;-61
2023/02/05 13:43:38;;;;;;;29.00;26.00;;;;;;;;;;5092041;28;20024;-61
2023/02/05 13:46:28;;;;;;;26.05;23.32;;;;;;;;;;4958324;28;10001273;-61
2023/02/05 13:49:07;;;;;;;25.33;22.90;;;;;;;;;;5082420;28;22290;-63
2023/02/05 13:51:51;;;;;;;25.55;23.05;;;;;;;;;;5081273;28;20388;-61
2023/02/05 13:54:36;;;;;;;26.52;23.92;;;;;;;;;;5068782;28;20025;-61
2023/02/05 13:57:12;;;;;;;26.92;24.02;;;;;;;;;;5051383;28;20573;-64
2023/02/05 13:59:40;;;;;;;26.17;23.73;;;;;;;;;;5103554;28;20028;-63
2023/02/05 14:02:25;;;;;;;27.83;24.92;;;;;;;;;;5083731;28;20495;-65
2023/02/05 14:04:53;;;;;;;27.00;23.95;;;;;;;;;;5085138;28;20062;-64
2023/02/05 14:07:27;;;;;;;27.42;24.55;;;;;;;;;;5078298;28;20024;-62
2023/02/05 14:09:55;;;;;;;27.90;25.25;;;;;;;;;;5088929;28;20074;-59
2023/02/05 14:12:26;;;;;;;28.00;25.50;;;;;;;;;;5091718;28;20054;-64
2023/02/05 14:15:11;;;;;;;28.55;25.77;;;;;;;;;;5091173;28;20484;-60
2023/02/05 14:17:37;;;;;;;29.48;26.50;;;;;;;;;;5091902;28;20125;-64
2023/02/05 14:20:05;;;;;;;29.80;26.90;;;;;;;;;;5091756;28;20120;-62
2023/02/05 14:22:34;;;;;;;28.75;26.15;;;;;;;;;;5076207;28;20025;-63
2023/02/05 14:25:00;;;;;;;29.38;26.27;;;;;;;;;;5087619;28;20027;-62
2023/02/05 14:27:26;;;;;;;30.15;26.85;;;;;;;;;;5073777;28;20082;-64
2023/02/05 14:29:52;;;;;;;28.85;25.98;;;;;;;;;;5091612;28;20024;-65
2023/02/05 14:32:18;;;;;;;29.00;26.05;;;;;;;;;;5091794;28;20016;-63
2023/02/05 14:34:45;;;;;;;28.58;25.77;;;;;;;;;;5089206;28;20099;-63
2023/02/05 14:37:25;;;;;;;29.85;26.88;;;;;;;;;;5089821;28;20020;-64
2023/02/05 14:39:51;;;;;;;28.88;24.60;;;;;;;;;;5071862;28;20034;-61